Flight Track Log - Related Links

Times and Time Zones

All times are in EDT time to prevent confusion due to time zone crossing. See the FFT907 flight status page for this flight to view local times or setup timezone preferences in your user account.

Time Position Orientation Groundspeed Altitude Reporting Facility
EDT Latitude Longitude Course Direction KTS MPH feet Rate Location/Type
Sun 02:01:54 PM 41.8000 -87.7360 25° Northeast 136 157 1,600  Level FlightAware ADS-B
Sun 02:02:22 PM 41.8150 -87.7510 323° Northwest 176 203 2,300 1,333 Climbing FlightAware ADS-B
Sun 02:02:30 PM 41.8160 -87.7600 278° West 191 220 2,400 1,333 Climbing FlightAware ADS-B
Sun 02:02:58 PM 41.8160 -87.7960 270° West 219 252 3,100 1,565 Climbing FlightAware ADS-B
Sun 02:03:16 PM 41.8150 -87.8230 267° West 242 278 3,600 2,000 Climbing FlightAware ADS-B
Sun 02:03:40 PM 41.8150 -87.8590 270° West 267 307 4,500 3,000 Climbing FlightAware ADS-B
Sun 02:04:02 PM 41.8140 -87.8980 268° West 263 303 5,900 3,571 Climbing FlightAware ADS-B
Sun 02:04:22 PM 41.8130 -87.9280 267° West 263 303 7,000 3,000 Climbing FlightAware ADS-B
Sun 02:04:42 PM 41.8130 -87.9600 270° West 269 310 7,900 2,667 Climbing FlightAware ADS-B
Sun 02:04:58 PM 41.8120 -87.9900 267° West 280 322 8,600 2,667 Climbing FlightAware ADS-B
Sun 02:05:18 PM 41.8110 -88.0260 268° West 288 331 9,500 2,786 Climbing FlightAware ADS-B
Sun 02:05:54 PM 41.8090 -88.0880 268° West 292 336 11,200 2,229 Climbing FlightAware ADS-B
Sun 02:06:28 PM 41.8060 -88.1560 267° West 329 379 12,100 1,971 Climbing FlightAware ADS-B
Sun 02:07:04 PM 41.8020 -88.2320 266° West 341 392 13,500 2,382 Climbing FlightAware ADS-B
Sun 02:07:36 PM 41.7990 -88.2960 266° West 346 398 14,800 2,400 Climbing FlightAware ADS-B
Sun 02:08:14 PM 41.7950 -88.3810 266° West 356 410 16,300 2,314 Climbing FlightAware ADS-B
Sun 02:08:46 PM 41.7920 -88.4520 267° West 361 415 17,500 2,087 Climbing FlightAware ADS-B
Sun 02:09:23 PM 41.7880 -88.5340 266° West 369 425 18,700 2,000 Climbing FlightAware ADS-B
Sun 02:09:58 PM 41.7850 -88.6170 267° West 378 435 19,900 1,944 Climbing FlightAware ADS-B
Sun 02:10:34 PM 41.7810 -88.6960 266° West 383 441 21,000 1,786 Climbing FlightAware ADS-B
Sun 02:11:22 PM 41.7760 -88.7900 266° West 384 442 22,400 1,952 Climbing FlightAware ADS-B
Sun 02:11:57 PM 41.7700 -88.8940 266° West 390 449 23,700 1,913 Climbing FlightAware ADS-B
Sun 02:12:31 PM 41.7650 -88.9790 266° West 396 456 24,600 1,636 Climbing FlightAware ADS-B
Sun 02:13:03 PM 41.7620 -89.0610 267° West 400 460 25,500 1,500 Climbing FlightAware ADS-B
Sun 02:13:43 PM 41.7580 -89.1580 267° West 408 470 26,400 1,263 Climbing FlightAware ADS-B
Sun 02:14:19 PM 41.7550 -89.2480 267° West 413 475 27,100 1,304 Climbing FlightAware ADS-B
Sun 02:14:52 PM 41.7520 -89.3320 267° West 416 479 27,900 1,304 Climbing FlightAware ADS-B
Sun 02:15:28 PM 41.7480 -89.4300 267° West 423 487 28,600 1,014 Climbing FlightAware ADS-B
Sun 02:16:03 PM 41.7450 -89.5180 267° West 432 497 29,100 1,015 Climbing FlightAware ADS-B
Sun 02:16:33 PM 41.7420 -89.6020 267° West 437 503 29,700 1,043 Climbing FlightAware ADS-B
Sun 02:17:12 PM 41.7370 -89.7100 266° West 445 512 30,300 947 Climbing FlightAware ADS-B
Sun 02:17:49 PM 41.7330 -89.8110 267° West 453 521 30,900 1,059 Climbing FlightAware ADS-B
Sun 02:18:20 PM 41.7300 -89.8960 267° West 455 524 31,500 1,200 Climbing FlightAware ADS-B
Sun 02:18:54 PM 41.7260 -89.9940 267° West 455 524 32,200 1,479 Climbing FlightAware ADS-B
Sun 02:19:33 PM 41.7210 -90.1030 267° West 450 518 33,300 1,556 Climbing FlightAware ADS-B
Sun 02:20:15 PM 41.7160 -90.2140 267° West 443 510 34,300 1,538 Climbing FlightAware ADS-B
Sun 02:20:51 PM 41.7120 -90.3130 267° West 436 502 35,300 1,371 Climbing FlightAware ADS-B
Sun 02:21:25 PM 41.7070 -90.4070 266° West 436 502 35,900 600 Climbing FlightAware ADS-B
Sun 02:22:01 PM 41.7030 -90.5030 267° West 436 502 36,000 92 Climbing FlightAware ADS-B
Sun 02:22:30 PM 41.6990 -90.5830 266° West 439 505 36,000  Level FlightAware ADS-B
Sun 02:23:11 PM 41.6940 -90.6910 266° West 440 506 36,000  Level FlightAware ADS-B
Sun 02:23:42 PM 41.6900 -90.7780 267° West 440 506 36,000 92 Level FlightAware ADS-B
Sun 02:24:16 PM 41.6850 -90.8700 266° West 444 511 36,100 583 Climbing FlightAware ADS-B
Sun 02:24:54 PM 41.6800 -90.9720 266° West 442 509 36,700 1,216 Climbing FlightAware ADS-B
Sun 02:25:30 PM 41.6750 -91.0690 266° West 430 495 37,600 1,164 Climbing FlightAware ADS-B
Sun 02:26:01 PM 41.6700 -91.1510 265° West 429 494 38,000 316 Climbing FlightAware ADS-B
Sun 02:26:46 PM 41.6650 -91.2630 267° West 425 489 38,000  Level FlightAware ADS-B
Sun 02:27:26 PM 41.6590 -91.3730 266° West 427 491 38,000  Level FlightAware ADS-B
Sun 02:27:59 PM 41.6540 -91.4590 266° West 428 493 38,000  Level FlightAware ADS-B
Sun 02:28:36 PM 41.6490 -91.5530 266° West 429 494 38,000  Level FlightAware ADS-B
Sun 02:29:12 PM 41.6430 -91.6490 265° West 429 494 38,000  Level FlightAware ADS-B
Sun 02:29:45 PM 41.6380 -91.7370 266° West 428 493 38,000  Level FlightAware ADS-B
Sun 02:30:24 PM 41.6320 -91.8430 266° West 428 493 38,000 -80 Level FlightAware ADS-B
Sun 02:31:00 PM 41.6260 -91.9380 265° West 428 493 37,900 -86 Descending FlightAware ADS-B
Sun 02:31:34 PM 41.6210 -92.0270 266° West 430 495 37,900  Level FlightAware ADS-B
Sun 02:32:47 PM 41.6090 -92.2200 265° West 434 499 37,900 55 Level FlightAware ADS-B
Sun 02:33:24 PM 41.6030 -92.3210 265° West 436 502 38,000 82 Climbing FlightAware ADS-B
Sun 02:34:00 PM 41.5970 -92.4160 265° West 436 502 38,000  Level FlightAware ADS-B
Sun 02:35:17 PM 41.5842 -92.6114 265° West 435 501 38,000  Level Chicago Center
Sun 02:36:19 PM 41.5728 -92.7739 265° West 434 499 38,000  Level Chicago Center
Sun 02:37:21 PM 41.5622 -92.9322 265° West 434 499 38,000  Level Chicago Center
Sun 02:43:15 PM 41.4930 -93.8820 265° West 435 501 38,000  Level FlightAware ADS-B
Sun 02:43:49 PM 41.4860 -93.9750 264° West 435 501 38,000  Level FlightAware ADS-B
Sun 02:44:23 PM 41.4790 -94.0660 264° West 433 498 38,000  Level FlightAware ADS-B
Sun 02:44:59 PM 41.4720 -94.1610 264° West 432 497 38,000  Level FlightAware ADS-B
Sun 02:45:35 PM 41.4640 -94.2560 264° West 431 496 38,000 -97 Level FlightAware ADS-B
Sun 02:46:01 PM 41.4590 -94.3200 264° West 430 495 37,900 -90 Descending FlightAware ADS-B
Sun 02:46:42 PM 41.4500 -94.4320 264° West 430 495 37,900  Level FlightAware ADS-B
Sun 02:47:19 PM 41.4420 -94.5290 264° West 430 495 37,900 87 Level FlightAware ADS-B
Sun 02:47:51 PM 41.4350 -94.6150 264° West 431 496 38,000 97 Climbing FlightAware ADS-B
Sun 02:48:21 PM 41.4290 -94.6890 264° West 430 495 38,000  Level FlightAware ADS-B
Sun 02:49:01 PM 41.4200 -94.7790 262° West 430 495 38,000  Level FlightAware ADS-B
Sun 02:49:34 PM 41.4130 -94.8770 265° West 430 495 38,000  Level FlightAware ADS-B
Sun 02:50:14 PM 41.4040 -94.9830 264° West 429 494 38,000  Level FlightAware ADS-B
Sun 02:50:49 PM 41.3950 -95.0760 263° West 426 490 38,000  Level FlightAware ADS-B
Sun 02:51:24 PM 41.3870 -95.1690 263° West 425 489 38,000 -86 Level FlightAware ADS-B
Sun 02:51:59 PM 41.3800 -95.2510 264° West 425 489 37,900 -88 Descending FlightAware ADS-B
Sun 02:52:32 PM 41.3710 -95.3490 263° West 423 487 37,900  Level FlightAware ADS-B
Sun 02:53:07 PM 41.3630 -95.4380 263° West 425 489 37,900 87 Level FlightAware ADS-B
Sun 02:53:41 PM 41.3550 -95.5250 263° West 425 489 38,000 82 Climbing FlightAware ADS-B
Sun 02:54:20 PM 41.3460 -95.6280 263° West 426 490 38,000  Level FlightAware ADS-B
Sun 02:54:50 PM 41.3390 -95.7050 263° West 428 493 38,000  Level FlightAware ADS-B
Sun 02:55:28 PM 41.3290 -95.8040 262° West 430 495 38,000  Level FlightAware ADS-B
Sun 02:56:04 PM 41.3200 -95.8980 263° West 432 497 38,000  Level FlightAware ADS-B
Sun 02:56:39 PM 41.3120 -95.9910 263° West 433 498 38,000  Level FlightAware ADS-B
Sun 02:57:11 PM 41.3030 -96.0760 262° West 433 498 38,000  Level FlightAware ADS-B
Sun 02:57:46 PM 41.2940 -96.1690 263° West 433 498 38,000  Level FlightAware ADS-B
Sun 02:58:23 PM 41.2850 -96.2630 263° West 432 497 38,000  Level FlightAware ADS-B
Sun 02:58:57 PM 41.2760 -96.3530 262° West 431 496 38,000  Level FlightAware ADS-B
Sun 02:59:33 PM 41.2670 -96.4470 263° West 428 493 38,000  Level FlightAware ADS-B
Sun 03:00:09 PM 41.2580 -96.5420 263° West 426 490 38,000  Level FlightAware ADS-B
Sun 03:00:40 PM 41.2500 -96.6210 262° West 424 488 38,000 -88 Level FlightAware ADS-B
Sun 03:01:17 PM 41.2400 -96.7160 262° West 421 484 37,900 -81 Descending FlightAware ADS-B
Sun 03:01:54 PM 41.2300 -96.8110 262° West 420 483 37,900  Level FlightAware ADS-B
Sun 03:02:30 PM 41.2210 -96.9050 263° West 419 482 37,900  Level FlightAware ADS-B
Sun 03:03:01 PM 41.2130 -96.9800 262° West 420 483 37,900  Level FlightAware ADS-B
Sun 03:03:37 PM 41.2030 -97.0750 262° West 421 484 37,900 87 Level FlightAware ADS-B
Sun 03:04:10 PM 41.1940 -97.1590 262° West 422 486 38,000 92 Climbing FlightAware ADS-B
Sun 03:04:42 PM 41.1860 -97.2370 262° West 423 487 38,000  Level FlightAware ADS-B
Sun 03:05:18 PM 41.1760 -97.3270 262° West 424 488 38,000  Level FlightAware ADS-B
Sun 03:05:56 PM 41.1650 -97.4260 262° West 425 489 38,000  Level FlightAware ADS-B
Sun 03:06:33 PM 41.1550 -97.5250 262° West 424 488 38,000  Level FlightAware ADS-B
Sun 03:07:07 PM 41.1450 -97.6120 261° West 423 487 38,000  Level FlightAware ADS-B
Sun 03:07:42 PM 41.1350 -97.7030 262° West 422 486 38,000  Level FlightAware ADS-B
Sun 03:08:20 PM 41.1240 -97.7980 261° West 422 486 38,000  Level FlightAware ADS-B
Sun 03:08:50 PM 41.1160 -97.8750 262° West 421 484 38,000  Level FlightAware ADS-B
Sun 03:09:26 PM 41.1050 -97.9680 261° West 421 484 38,000 -86 Level FlightAware ADS-B
Sun 03:10:00 PM 41.0960 -98.0490 262° West 422 486 37,900 -87 Descending FlightAware ADS-B
Sun 03:10:35 PM 41.0860 -98.1380 262° West 423 487 37,900 109 Level FlightAware ADS-B
Sun 03:10:55 PM 41.0800 -98.1910 261° West 424 488 38,000 86 Climbing FlightAware ADS-B
Sun 03:11:45 PM 41.0640 -98.3230 261° West 427 491 38,000  Level FlightAware ADS-B
Sun 03:12:20 PM 41.0550 -98.4080 262° West 428 493 38,000  Level FlightAware ADS-B
Sun 03:12:55 PM 41.0450 -98.5030 262° West 429 494 38,000  Level FlightAware ADS-B
Sun 03:13:30 PM 41.0350 -98.5900 261° West 430 495 38,000  Level FlightAware ADS-B
Sun 03:14:05 PM 41.0260 -98.6740 262° West 429 494 38,000  Level FlightAware ADS-B
Sun 03:14:40 PM 41.0140 -98.7760 261° West 426 490 38,000  Level FlightAware ADS-B
Sun 03:15:15 PM 41.0050 -98.8620 262° West 426 490 38,000  Level FlightAware ADS-B
Sun 03:15:55 PM 40.9930 -98.9610 261° West 424 488 38,000  Level FlightAware ADS-B
Sun 03:16:30 PM 40.9830 -99.0510 262° West 425 489 38,000  Level FlightAware ADS-B
Sun 03:17:10 PM 40.9700 -99.1610 261° West 438 504 38,000  Level FlightAware ADS-B
Sun 03:17:40 PM 40.9620 -99.2350 262° West 444 511 38,000  Level FlightAware ADS-B
Sun 03:18:36 PM 40.9440 -99.3810 261° West 445 512 38,000  Level FlightAware ADS-B
Sun 03:19:13 PM 40.9340 -99.4660 261° West 445 512 38,000  Level FlightAware ADS-B
Sun 03:19:49 PM 40.9210 -99.5750 261° West 445 512 38,000  Level FlightAware ADS-B
Sun 03:20:33 PM 40.9080 -99.6890 261° West 447 514 38,000  Level FlightAware ADS-B
Sun 03:21:05 PM 40.8960 -99.7880 261° West 444 511 38,000  Level FlightAware ADS-B
Sun 03:21:40 PM 40.8850 -99.8760 261° West 444 511 38,000  Level FlightAware ADS-B
Sun 03:22:23 PM 40.8720 -99.9770 260° West 444 511 38,000  Level FlightAware ADS-B
Sun 03:22:55 PM 40.8600 -100.0780 261° West 443 510 38,000 -97 Level FlightAware ADS-B
Sun 03:23:25 PM 40.8500 -100.1560 260° West 442 509 37,900  Descending FlightAware ADS-B
Sun 03:24:05 PM 40.8370 -100.2620 261° West 442 509 38,000 80 Climbing FlightAware ADS-B
Sun 03:24:40 PM 40.8240 -100.3670 261° West 442 509 38,000  Level FlightAware ADS-B
Sun 03:25:20 PM 40.8120 -100.4580 260° West 442 509 38,000  Level FlightAware ADS-B
Sun 03:25:54 PM 40.8020 -100.5350 260° West 442 509 38,000  Level FlightAware ADS-B
Sun 03:26:30 PM 40.7910 -100.6160 260° West 442 509 38,000  Level FlightAware ADS-B
Sun 03:27:18 PM 40.7680 -100.7680 259° West 441 507 38,000  Level FlightAware ADS-B
Sun 03:27:56 PM 40.7530 -100.8530 257° West 441 507 38,000  Level FlightAware ADS-B
Sun 03:28:32 PM 40.7390 -100.9340 257° West 441 507 38,000  Level FlightAware ADS-B
Sun 03:29:08 PM 40.7250 -101.0140 257° West 441 507 38,000  Level FlightAware ADS-B
Sun 03:29:44 PM 40.7110 -101.0940 257° West 441 507 38,000  Level FlightAware ADS-B
Sun 03:30:20 PM 40.6970 -101.1740 257° West 441 507 38,000  Level FlightAware ADS-B
Sun 03:30:56 PM 40.6830 -101.2550 257° West 441 507 38,000  Level FlightAware ADS-B
Sun 03:31:31 PM 40.6690 -101.3320 257° West 441 507 38,000  Level FlightAware ADS-B
Sun 03:32:09 PM 40.6540 -101.4170 257° West 441 507 38,000  Level FlightAware ADS-B
Sun 03:32:45 PM 40.6400 -101.4970 257° West 441 507 38,000  Level FlightAware ADS-B
Sun 03:33:22 PM 40.6260 -101.5800 257° West 441 507 38,000  Level FlightAware ADS-B
Sun 03:33:58 PM 40.6110 -101.6600 256° West 441 507 38,000  Level FlightAware ADS-B
Sun 03:34:28 PM 40.5710 -101.9020 258° West 439 505 38,000  Level FlightAware ADS-B
Sun 03:35:04 PM 40.5540 -101.9950 257° West 440 506 38,000  Level FlightAware ADS-B
Sun 03:35:39 PM 40.5380 -102.0810 256° West 439 505 38,000  Level FlightAware ADS-B
Sun 03:36:16 PM 40.5200 -102.1810 257° West 437 503 38,000  Level FlightAware ADS-B
Sun 03:36:52 PM 40.5020 -102.2740 256° West 437 503 38,000  Level FlightAware ADS-B
Sun 03:37:24 PM 40.4870 -102.3560 257° West 438 504 38,000  Level FlightAware ADS-B
Sun 03:38:01 PM 40.4700 -102.4510 257° West 438 504 38,000 -333 Level FlightAware ADS-B
Sun 03:38:36 PM 40.4530 -102.5410 256° West 440 506 37,600 -1,754 Descending FlightAware ADS-B
Sun 03:39:06 PM 40.4380 -102.6210 256° West 440 506 36,100 -3,171 Descending FlightAware ADS-B
Sun 03:39:46 PM 40.4180 -102.7250 256° West 446 513 33,900 -3,395 Descending FlightAware ADS-B
Sun 03:40:22 PM 40.4010 -102.8190 257° West 449 517 31,800 -3,417 Descending FlightAware ADS-B
Sun 03:40:58 PM 40.3830 -102.9150 256° West 452 520 29,800 -3,000 Descending FlightAware ADS-B
Sun 03:41:30 PM 40.3670 -103.0010 256° West 443 510 28,400 -2,597 Descending FlightAware ADS-B
Sun 03:42:05 PM 40.3500 -103.0880 256° West 438 504 26,900 -2,630 Descending FlightAware ADS-B
Sun 03:42:43 PM 40.3310 -103.1840 255° West 430 495 25,200 -2,571 Descending FlightAware ADS-B
Sun 03:43:15 PM 40.3160 -103.2650 256° West 424 488 23,900 -2,418 Descending FlightAware ADS-B
Sun 03:43:50 PM 40.2990 -103.3510 255° West 416 479 22,500 -2,500 Descending FlightAware ADS-B
Sun 03:44:27 PM 40.2810 -103.4420 255° West 411 473 20,900 -2,400 Descending FlightAware ADS-B
Sun 03:44:55 PM 40.2680 -103.5090 256° West 406 467 19,900 -2,200 Descending FlightAware ADS-B
Sun 03:45:27 PM 40.2530 -103.5850 256° West 400 460 18,700 -1,765 Descending FlightAware ADS-B
Sun 03:46:03 PM 40.2370 -103.6680 256° West 378 435 17,900 -971 Descending FlightAware ADS-B
Sun 03:46:35 PM 40.2240 -103.7340 256° West 353 406 17,600 -667 Descending FlightAware ADS-B
Sun 03:47:15 PM 40.2080 -103.8140 255° West 324 373 17,100 -700 Descending FlightAware ADS-B
Sun 03:47:35 PM 40.1990 -103.8510 252° West 310 357 16,900 -706 Descending FlightAware ADS-B
Sun 03:47:49 PM 40.1900 -103.8740 243° Southwest 303 349 16,700 -1,680 Descending FlightAware ADS-B
Sun 03:48:25 PM 40.1630 -103.9290 237° Southwest 314 361 15,500 -1,917 Descending FlightAware ADS-B
Sun 03:49:01 PM 40.1360 -103.9870 239° Southwest 313 360 14,400 -1,765 Descending FlightAware ADS-B
Sun 03:49:33 PM 40.1110 -104.0390 238° Southwest 313 360 13,500 -1,324 Descending FlightAware ADS-B
Sun 03:50:09 PM 40.0840 -104.0950 238° Southwest 300 345 12,900 -692 Descending FlightAware ADS-B
Sun 03:50:25 PM 40.0700 -104.1190 233° Southwest 280 322 12,900  Level FlightAware ADS-B
Sun 03:50:36 PM 40.0590 -104.1280 212° Southwest 268 308 12,900 -250 Level FlightAware ADS-B
Sun 03:51:13 PM 40.0200 -104.1470 200° South 254 292 12,700 -740 Descending FlightAware ADS-B
Sun 03:51:49 PM 39.9780 -104.1680 201° Southwest 250 288 12,000 -1,235 Descending FlightAware ADS-B
Sun 03:52:21 PM 39.9430 -104.1850 200° South 251 289 11,300 -1,324 Descending FlightAware ADS-B
Sun 03:52:57 PM 39.9040 -104.2050 201° Southwest 252 290 10,500 -1,125 Descending FlightAware ADS-B
Sun 03:53:09 PM 39.8940 -104.2160 220° Southwest 251 289 10,400 -600 Descending FlightAware ADS-B
Sun 03:53:17 PM 39.8890 -104.2270 239° Southwest 251 289 10,300 -1,000 Descending FlightAware ADS-B
Sun 03:53:33 PM 39.8860 -104.2500 260° West 255 293 10,000 -1,000 Descending FlightAware ADS-B
Sun 03:53:53 PM 39.8850 -104.2800 268° West 254 292 9,700 -1,125 Descending FlightAware ADS-B
Sun 03:54:05 PM 39.8830 -104.3000 263° West 251 289 9,400 -1,167 Descending FlightAware ADS-B
Sun 03:54:29 PM 39.8760 -104.3350 255° West 248 285 9,000 -1,091 Descending FlightAware ADS-B
Sun 03:54:49 PM 39.8750 -104.3640 267° West 247 284 8,600 -1,105 Descending FlightAware ADS-B
Sun 03:55:07 PM 39.8750 -104.3910 270° West 247 284 8,300 -1,050 Descending FlightAware ADS-B
Sun 03:55:29 PM 39.8760 -104.4240 272° West 244 281 7,900 -1,043 Descending FlightAware ADS-B
Sun 03:55:53 PM 39.8760 -104.4590 270° West 237 273 7,500 -1,200 Descending FlightAware ADS-B
Sun 03:56:09 PM 39.8760 -104.4800 270° West 231 266 7,100 -1,235 Descending FlightAware ADS-B
Sun 03:56:27 PM 39.8760 -104.5050 270° West 223 257 6,800 -947 Descending FlightAware ADS-B
Sun 03:56:47 PM 39.8770 -104.5300 273° West 206 237 6,500 -1,000 Descending FlightAware ADS-B
Sun 03:57:15 PM 39.8770 -104.5620 270° West 167 192 6,000 -947 Descending FlightAware ADS-B
Sun 03:57:25 PM 39.8770 -104.5710 270° West 155 178 5,900 -714 Descending FlightAware ADS-B
Sun 03:57:57 PM 39.8770 -104.6000 270° West 153 176 5,500 -735 Descending FlightAware ADS-B
Sun 03:58:14 PM 39.8770 -104.6130 270° West 150 173 5,300 -267 Descending FlightAware ADS-B
Sun 03:58:42 PM 39.8770 -104.6350 270° West 150 173 5,300  Level FlightAware ADS-B

Login

Don't have an account? Register now (free) for customized features, flight alerts, and more!